sensor_id;sensor_type;location;lat;lon;timestamp;pressure;altitude;pressure_sealevel;temperature;humidity
70027;BME280;57506;50.092;15.804;2023-07-13T00:00:13;98681.72;;;19.30;100.00
70027;BME280;57506;50.092;15.804;2023-07-13T00:02:42;98685.78;;;19.28;100.00
70027;BME280;57506;50.092;15.804;2023-07-13T00:05:08;98677.81;;;19.21;100.00
70027;BME280;57506;50.092;15.804;2023-07-13T00:07:34;98691.25;;;19.28;100.00
70027;BME280;57506;50.092;15.804;2023-07-13T00:10:01;98689.91;;;19.30;100.00
70027;BME280;57506;50.092;15.804;2023-07-13T00:14:56;98703.31;;;19.32;100.00
70027;BME280;57506;50.092;15.804;2023-07-13T00:17:23;98713.44;;;19.36;100.00
70027;BME280;57506;50.092;15.804;2023-07-13T00:19:48;98715.59;;;19.34;100.00
70027;BME280;57506;50.092;15.804;2023-07-13T00:22:14;98718.59;;;19.33;100.00
70027;BME280;57506;50.092;15.804;2023-07-13T00:24:40;98720.78;;;19.31;100.00
70027;BME280;57506;50.092;15.804;2023-07-13T00:27:08;98713.88;;;19.23;100.00
70027;BME280;57506;50.092;15.804;2023-07-13T00:29:35;98700.50;;;19.21;100.00
70027;BME280;57506;50.092;15.804;2023-07-13T00:32:01;98711.72;;;19.25;100.00
70027;BME280;57506;50.092;15.804;2023-07-13T00:34:27;98689.50;;;19.16;100.00
70027;BME280;57506;50.092;15.804;2023-07-13T00:36:52;98684.03;;;19.11;100.00
70027;BME280;57506;50.092;15.804;2023-07-13T00:39:18;98676.81;;;18.95;100.00
70027;BME280;57506;50.092;15.804;2023-07-13T00:41:46;98682.84;;;18.97;100.00
70027;BME280;57506;50.092;15.804;2023-07-13T00:44:16;98683.91;;;18.96;100.00
70027;BME280;57506;50.092;15.804;2023-07-13T00:46:41;98676.19;;;18.88;100.00
70027;BME280;57506;50.092;15.804;2023-07-13T00:49:10;98663.31;;;18.83;100.00
70027;BME280;57506;50.092;15.804;2023-07-13T00:51:43;98671.28;;;18.90;100.00
70027;BME280;57506;50.092;15.804;2023-07-13T00:54:13;98662.41;;;19.05;100.00
70027;BME280;57506;50.092;15.804;2023-07-13T00:56:41;98672.03;;;19.17;100.00
70027;BME280;57506;50.092;15.804;2023-07-13T00:59:10;98666.66;;;19.28;100.00
70027;BME280;57506;50.092;15.804;2023-07-13T01:01:37;98653.63;;;19.40;100.00
70027;BME280;57506;50.092;15.804;2023-07-13T01:04:04;98651.50;;;19.47;100.00
70027;BME280;57506;50.092;15.804;2023-07-13T01:06:35;98642.16;;;19.43;100.00
70027;BME280;57506;50.092;15.804;2023-07-13T01:09:02;98629.34;;;19.43;100.00
70027;BME280;57506;50.092;15.804;2023-07-13T01:11:28;98637.00;;;19.46;100.00
70027;BME280;57506;50.092;15.804;2023-07-13T01:13:53;98624.13;;;19.42;100.00
70027;BME280;57506;50.092;15.804;2023-07-13T01:16:27;98625.19;;;19.36;100.00
70027;BME280;57506;50.092;15.804;2023-07-13T01:18:54;98619.13;;;19.29;100.00
70027;BME280;57506;50.092;15.804;2023-07-13T01:21:24;98612.50;;;19.14;100.00
70027;BME280;57506;50.092;15.804;2023-07-13T01:23:49;98611.41;;;19.15;100.00
70027;BME280;57506;50.092;15.804;2023-07-13T01:26:15;98620.09;;;19.07;100.00
70027;BME280;57506;50.092;15.804;2023-07-13T01:28:41;98617.88;;;19.04;100.00
70027;BME280;57506;50.092;15.804;2023-07-13T01:31:06;98608.03;;;18.98;100.00
70027;BME280;57506;50.092;15.804;2023-07-13T01:33:34;98616.47;;;19.02;100.00
70027;BME280;57506;50.092;15.804;2023-07-13T01:35:59;98604.22;;;18.99;100.00
70027;BME280;57506;50.092;15.804;2023-07-13T01:38:27;98616.84;;;19.10;100.00
70027;BME280;57506;50.092;15.804;2023-07-13T01:40:54;98599.84;;;19.03;100.00
70027;BME280;57506;50.092;15.804;2023-07-13T01:43:19;98601.78;;;19.08;100.00
70027;BME280;57506;50.092;15.804;2023-07-13T01:45:45;98588.91;;;18.98;100.00
70027;BME280;57506;50.092;15.804;2023-07-13T01:48:11;98586.69;;;18.95;100.00
70027;BME280;57506;50.092;15.804;2023-07-13T01:50:37;98573.03;;;18.95;100.00
70027;BME280;57506;50.092;15.804;2023-07-13T01:53:04;98563.72;;;18.91;100.00
70027;BME280;57506;50.092;15.804;2023-07-13T01:55:30;98568.91;;;18.93;100.00
70027;BME280;57506;50.092;15.804;2023-07-13T01:57:56;98577.94;;;18.93;100.00
70027;BME280;57506;50.092;15.804;2023-07-13T02:00:22;98577.38;;;18.91;100.00
70027;BME280;57506;50.092;15.804;2023-07-13T02:02:47;98581.72;;;18.87;100.00
70027;BME280;57506;50.092;15.804;2023-07-13T02:05:13;98579.78;;;18.82;100.00
70027;BME280;57506;50.092;15.804;2023-07-13T02:07:39;98561.94;;;18.70;100.00
70027;BME280;57506;50.092;15.804;2023-07-13T02:10:08;98563.84;;;18.69;100.00
70027;BME280;57506;50.092;15.804;2023-07-13T02:12:34;98562.72;;;18.65;100.00
70027;BME280;57506;50.092;15.804;2023-07-13T02:15:01;98568.97;;;18.61;100.00
70027;BME280;57506;50.092;15.804;2023-07-13T02:17:27;98582.03;;;18.59;100.00
70027;BME280;57506;50.092;15.804;2023-07-13T02:19:52;98584.78;;;18.59;100.00
70027;BME280;57506;50.092;15.804;2023-07-13T02:22:18;98605.59;;;18.70;100.00
70027;BME280;57506;50.092;15.804;2023-07-13T02:24:43;98614.97;;;18.79;100.00
70027;BME280;57506;50.092;15.804;2023-07-13T02:27:09;98616.69;;;18.90;100.00
70027;BME280;57506;50.092;15.804;2023-07-13T02:29:34;98623.84;;;19.01;100.00
70027;BME280;57506;50.092;15.804;2023-07-13T02:32:00;98625.38;;;18.87;100.00
70027;BME280;57506;50.092;15.804;2023-07-13T02:34:25;98619.91;;;18.82;100.00
70027;BME280;57506;50.092;15.804;2023-07-13T02:36:51;98639.09;;;18.92;100.00
70027;BME280;57506;50.092;15.804;2023-07-13T02:39:17;98633.06;;;18.90;100.00
70027;BME280;57506;50.092;15.804;2023-07-13T02:41:42;98632.47;;;18.83;100.00
70027;BME280;57506;50.092;15.804;2023-07-13T02:44:08;98609.13;;;18.65;100.00
70027;BME280;57506;50.092;15.804;2023-07-13T02:46:35;98623.59;;;18.66;100.00
70027;BME280;57506;50.092;15.804;2023-07-13T02:49:02;98633.28;;;18.57;100.00
70027;BME280;57506;50.092;15.804;2023-07-13T02:51:30;98626.69;;;18.52;100.00
70027;BME280;57506;50.092;15.804;2023-07-13T02:53:58;98636.78;;;18.52;100.00
70027;BME280;57506;50.092;15.804;2023-07-13T02:56:26;98634.59;;;18.49;100.00
70027;BME280;57506;50.092;15.804;2023-07-13T02:58:52;98643.81;;;18.43;100.00
70027;BME280;57506;50.092;15.804;2023-07-13T03:01:18;98641.72;;;18.50;100.00
70027;BME280;57506;50.092;15.804;2023-07-13T03:03:47;98640.75;;;18.34;100.00
70027;BME280;57506;50.092;15.804;2023-07-13T03:06:14;98641.84;;;18.38;100.00
70027;BME280;57506;50.092;15.804;2023-07-13T03:08:40;98642.34;;;18.35;100.00
70027;BME280;57506;50.092;15.804;2023-07-13T03:11:08;98648.63;;;18.36;100.00
70027;BME280;57506;50.092;15.804;2023-07-13T03:13:34;98640.06;;;18.49;100.00
70027;BME280;57506;50.092;15.804;2023-07-13T03:16:00;98634.94;;;18.58;100.00
70027;BME280;57506;50.092;15.804;2023-07-13T03:18:27;98654.97;;;18.63;100.00
70027;BME280;57506;50.092;15.804;2023-07-13T03:20:56;98651.41;;;18.63;100.00
70027;BME280;57506;50.092;15.804;2023-07-13T03:23:22;98648.19;;;18.71;100.00
70027;BME280;57506;50.092;15.804;2023-07-13T03:25:48;98643.28;;;18.73;100.00
70027;BME280;57506;50.092;15.804;2023-07-13T03:28:14;98664.63;;;18.76;100.00
70027;BME280;57506;50.092;15.804;2023-07-13T03:30:41;98664.94;;;18.79;100.00
70027;BME280;57506;50.092;15.804;2023-07-13T03:33:06;98668.75;;;18.83;100.00
70027;BME280;57506;50.092;15.804;2023-07-13T03:35:33;98667.09;;;18.77;100.00
70027;BME280;57506;50.092;15.804;2023-07-13T03:37:59;98670.38;;;18.79;100.00
70027;BME280;57506;50.092;15.804;2023-07-13T03:40:28;98661.88;;;18.76;100.00
70027;BME280;57506;50.092;15.804;2023-07-13T03:42:54;98661.63;;;18.77;100.00
70027;BME280;57506;50.092;15.804;2023-07-13T03:45:19;98671.25;;;18.85;100.00
70027;BME280;57506;50.092;15.804;2023-07-13T03:47:45;98669.66;;;18.89;100.00
70027;BME280;57506;50.092;15.804;2023-07-13T03:50:11;98665.88;;;18.95;100.00
70027;BME280;57506;50.092;15.804;2023-07-13T03:52:36;98671.59;;;18.94;100.00
70027;BME280;57506;50.092;15.804;2023-07-13T03:55:02;98686.94;;;19.00;100.00
70027;BME280;57506;50.092;15.804;2023-07-13T03:57:28;98686.66;;;19.01;100.00
70027;BME280;57506;50.092;15.804;2023-07-13T03:59:54;98685.06;;;19.05;100.00
70027;BME280;57506;50.092;15.804;2023-07-13T04:02:19;98676.91;;;19.10;100.00
70027;BME280;57506;50.092;15.804;2023-07-13T04:04:46;98688.44;;;19.17;100.00
70027;BME280;57506;50.092;15.804;2023-07-13T04:07:11;98696.69;;;19.22;100.00
70027;BME280;57506;50.092;15.804;2023-07-13T04:09:37;98699.44;;;19.28;100.00
70027;BME280;57506;50.092;15.804;2023-07-13T04:12:03;98707.97;;;19.31;100.00
70027;BME280;57506;50.092;15.804;2023-07-13T04:14:29;98698.66;;;19.32;100.00
70027;BME280;57506;50.092;15.804;2023-07-13T04:16:54;98708.00;;;19.41;100.00
70027;BME280;57506;50.092;15.804;2023-07-13T04:19:21;98713.31;;;19.53;100.00
70027;BME280;57506;50.092;15.804;2023-07-13T04:21:46;98726.25;;;19.63;100.00
70027;BME280;57506;50.092;15.804;2023-07-13T04:24:12;98718.31;;;19.66;100.00
70027;BME280;57506;50.092;15.804;2023-07-13T04:26:38;98721.69;;;19.83;100.00
70027;BME280;57506;50.092;15.804;2023-07-13T04:29:04;98734.63;;;19.93;100.00
70027;BME280;57506;50.092;15.804;2023-07-13T04:31:30;98718.50;;;19.97;100.00
70027;BME280;57506;50.092;15.804;2023-07-13T04:33:56;98719.34;;;20.07;100.00
70027;BME280;57506;50.092;15.804;2023-07-13T04:36:22;98728.69;;;20.16;100.00
70027;BME280;57506;50.092;15.804;2023-07-13T04:38:48;98738.34;;;20.29;100.00
70027;BME280;57506;50.092;15.804;2023-07-13T04:41:14;98743.00;;;20.34;100.00
70027;BME280;57506;50.092;15.804;2023-07-13T04:43:41;98732.31;;;20.32;100.00
70027;BME280;57506;50.092;15.804;2023-07-13T04:46:09;98731.22;;;20.33;100.00
70027;BME280;57506;50.092;15.804;2023-07-13T04:48:36;98737.78;;;20.32;100.00
70027;BME280;57506;50.092;15.804;2023-07-13T04:51:02;98747.47;;;20.45;100.00
70027;BME280;57506;50.092;15.804;2023-07-13T04:53:28;98734.31;;;20.47;100.00
70027;BME280;57506;50.092;15.804;2023-07-13T04:55:55;98742.53;;;20.52;100.00
70027;BME280;57506;50.092;15.804;2023-07-13T04:58:21;98743.38;;;20.57;100.00
70027;BME280;57506;50.092;15.804;2023-07-13T05:00:47;98740.13;;;20.60;100.00
70027;BME280;57506;50.092;15.804;2023-07-13T05:03:12;98737.63;;;20.59;100.00
70027;BME280;57506;50.092;15.804;2023-07-13T05:05:38;98736.81;;;20.64;100.00
70027;BME280;57506;50.092;15.804;2023-07-13T05:08:04;98737.94;;;20.73;100.00
70027;BME280;57506;50.092;15.804;2023-07-13T05:10:29;98737.97;;;20.78;100.00
70027;BME280;57506;50.092;15.804;2023-07-13T05:12:55;98737.41;;;20.86;100.00
70027;BME280;57506;50.092;15.804;2023-07-13T05:15:21;98735.22;;;20.98;100.00
70027;BME280;57506;50.092;15.804;2023-07-13T05:17:48;98740.72;;;20.93;100.00
70027;BME280;57506;50.092;15.804;2023-07-13T05:20:14;98740.41;;;20.94;100.00
70027;BME280;57506;50.092;15.804;2023-07-13T05:22:42;98749.75;;;21.04;100.00
70027;BME280;57506;50.092;15.804;2023-07-13T05:25:08;98745.09;;;21.04;100.00
70027;BME280;57506;50.092;15.804;2023-07-13T05:27:34;98753.59;;;21.13;100.00
70027;BME280;57506;50.092;15.804;2023-07-13T05:30:01;98747.31;;;21.17;100.00
70027;BME280;57506;50.092;15.804;2023-07-13T05:32:27;98737.16;;;21.03;100.00
70027;BME280;57506;50.092;15.804;2023-07-13T05:34:52;98744.00;;;21.05;100.00
70027;BME280;57506;50.092;15.804;2023-07-13T05:37:18;98757.16;;;21.13;100.00
70027;BME280;57506;50.092;15.804;2023-07-13T05:39:44;98750.31;;;21.11;100.00
70027;BME280;57506;50.092;15.804;2023-07-13T05:42:09;98750.09;;;21.22;100.00
70027;BME280;57506;50.092;15.804;2023-07-13T05:44:35;98750.09;;;21.38;100.00
70027;BME280;57506;50.092;15.804;2023-07-13T05:47:01;98739.94;;;21.38;100.00
70027;BME280;57506;50.092;15.804;2023-07-13T05:49:26;98755.56;;;21.48;100.00
70027;BME280;57506;50.092;15.804;2023-07-13T05:51:52;98764.59;;;21.63;100.00
70027;BME280;57506;50.092;15.804;2023-07-13T05:54:18;98759.91;;;21.64;100.00
70027;BME280;57506;50.092;15.804;2023-07-13T05:56:43;98774.16;;;21.86;100.00
70027;BME280;57506;50.092;15.804;2023-07-13T05:59:09;98784.31;;;21.86;100.00
70027;BME280;57506;50.092;15.804;2023-07-13T06:01:35;98778.25;;;21.99;100.00
70027;BME280;57506;50.092;15.804;2023-07-13T06:04:00;98788.94;;;22.16;100.00
70027;BME280;57506;50.092;15.804;2023-07-13T06:06:26;98778.50;;;22.13;100.00
70027;BME280;57506;50.092;15.804;2023-07-13T06:08:52;98787.72;;;22.42;100.00
70027;BME280;57506;50.092;15.804;2023-07-13T06:11:20;98782.22;;;22.52;99.23
70027;BME280;57506;50.092;15.804;2023-07-13T06:13:46;98773.44;;;22.50;100.00
70027;BME280;57506;50.092;15.804;2023-07-13T06:16:13;98781.03;;;22.68;99.40
70027;BME280;57506;50.092;15.804;2023-07-13T06:18:39;98773.81;;;22.88;100.00
70027;BME280;57506;50.092;15.804;2023-07-13T06:21:17;98800.16;;;22.94;100.00
70027;BME280;57506;50.092;15.804;2023-07-13T06:23:44;98803.94;;;23.03;96.64
70027;BME280;57506;50.092;15.804;2023-07-13T06:26:11;98803.78;;;22.84;98.07
70027;BME280;57506;50.092;15.804;2023-07-13T06:28:37;98796.94;;;22.77;100.00
70027;BME280;57506;50.092;15.804;2023-07-13T06:31:06;98805.72;;;22.84;100.00
70027;BME280;57506;50.092;15.804;2023-07-13T06:33:32;98809.59;;;22.73;99.52
70027;BME280;57506;50.092;15.804;2023-07-13T06:35:58;98815.66;;;22.64;99.79
70027;BME280;57506;50.092;15.804;2023-07-13T06:38:23;98800.88;;;22.55;99.79
70027;BME280;57506;50.092;15.804;2023-07-13T06:40:49;98810.69;;;22.72;99.71
70027;BME280;57506;50.092;15.804;2023-07-13T06:43:15;98812.03;;;22.79;100.00
70027;BME280;57506;50.092;15.804;2023-07-13T06:45:45;98806.19;;;22.91;100.00
70027;BME280;57506;50.092;15.804;2023-07-13T06:48:13;98810.56;;;22.97;98.01
70027;BME280;57506;50.092;15.804;2023-07-13T06:50:39;98816.34;;;23.00;99.55
70027;BME280;57506;50.092;15.804;2023-07-13T06:53:04;98813.13;;;22.83;97.07
70027;BME280;57506;50.092;15.804;2023-07-13T06:55:30;98816.69;;;22.89;95.73
70027;BME280;57506;50.092;15.804;2023-07-13T06:57:55;98835.84;;;22.99;97.85
70027;BME280;57506;50.092;15.804;2023-07-13T07:00:24;98835.00;;;23.03;99.85
70027;BME280;57506;50.092;15.804;2023-07-13T07:02:49;98839.13;;;23.01;94.92
70027;BME280;57506;50.092;15.804;2023-07-13T07:05:15;98853.47;;;22.93;95.95
70027;BME280;57506;50.092;15.804;2023-07-13T07:07:40;98840.03;;;22.86;95.87
70027;BME280;57506;50.092;15.804;2023-07-13T07:10:07;98847.47;;;22.86;96.67
70027;BME280;57506;50.092;15.804;2023-07-13T07:12:32;98843.13;;;22.69;97.67
70027;BME280;57506;50.092;15.804;2023-07-13T07:14:58;98858.19;;;22.82;97.90
70027;BME280;57506;50.092;15.804;2023-07-13T07:17:24;98855.72;;;22.81;96.00
70027;BME280;57506;50.092;15.804;2023-07-13T07:19:50;98864.78;;;22.76;90.92
70027;BME280;57506;50.092;15.804;2023-07-13T07:22:16;98855.75;;;22.65;88.90
70027;BME280;57506;50.092;15.804;2023-07-13T07:24:41;98861.25;;;22.71;87.29
70027;BME280;57506;50.092;15.804;2023-07-13T07:27:07;98869.19;;;22.77;82.73
70027;BME280;57506;50.092;15.804;2023-07-13T07:29:33;98856.03;;;22.69;78.76
70027;BME280;57506;50.092;15.804;2023-07-13T07:31:59;98870.97;;;23.07;77.98
70027;BME280;57506;50.092;15.804;2023-07-13T07:34:25;98869.84;;;23.18;77.68
70027;BME280;57506;50.092;15.804;2023-07-13T07:36:53;98889.53;;;23.30;75.34
70027;BME280;57506;50.092;15.804;2023-07-13T07:39:19;98851.97;;;23.16;78.18
70027;BME280;57506;50.092;15.804;2023-07-13T07:41:45;98875.31;;;23.18;75.38
70027;BME280;57506;50.092;15.804;2023-07-13T07:44:11;98892.84;;;23.27;73.80
70027;BME280;57506;50.092;15.804;2023-07-13T07:46:36;98889.66;;;23.59;73.04
70027;BME280;57506;50.092;15.804;2023-07-13T07:49:02;98895.31;;;23.73;71.28
70027;BME280;57506;50.092;15.804;2023-07-13T07:51:28;98882.28;;;23.50;69.82
70027;BME280;57506;50.092;15.804;2023-07-13T07:53:53;98882.75;;;23.62;69.79
70027;BME280;57506;50.092;15.804;2023-07-13T07:56:19;98860.25;;;23.55;69.16
70027;BME280;57506;50.092;15.804;2023-07-13T07:58:44;98885.22;;;23.63;69.23
70027;BME280;57506;50.092;15.804;2023-07-13T08:01:10;98885.66;;;23.81;68.33
70027;BME280;57506;50.092;15.804;2023-07-13T08:03:36;98894.91;;;23.90;67.70
70027;BME280;57506;50.092;15.804;2023-07-13T08:06:01;98900.88;;;23.68;68.70
70027;BME280;57506;50.092;15.804;2023-07-13T08:08:27;98904.94;;;24.10;69.16
70027;BME280;57506;50.092;15.804;2023-07-13T08:10:53;98890.78;;;23.92;67.40
70027;BME280;57506;50.092;15.804;2023-07-13T08:13:19;98899.69;;;24.13;70.23
70027;BME280;57506;50.092;15.804;2023-07-13T08:15:44;98899.56;;;24.28;70.98
70027;BME280;57506;50.092;15.804;2023-07-13T08:18:11;98899.72;;;24.08;66.95
70027;BME280;57506;50.092;15.804;2023-07-13T08:20:40;98892.78;;;24.16;67.32
70027;BME280;57506;50.092;15.804;2023-07-13T08:23:07;98908.75;;;24.14;68.34
70027;BME280;57506;50.092;15.804;2023-07-13T08:25:34;98911.78;;;24.46;70.26
70027;BME280;57506;50.092;15.804;2023-07-13T08:28:02;98901.59;;;24.70;68.32
70027;BME280;57506;50.092;15.804;2023-07-13T08:30:28;98906.34;;;24.89;68.26
70027;BME280;57506;50.092;15.804;2023-07-13T08:32:54;98904.81;;;24.77;62.93
70027;BME280;57506;50.092;15.804;2023-07-13T08:35:22;98916.28;;;24.37;63.41
70027;BME280;57506;50.092;15.804;2023-07-13T08:37:47;98903.38;;;24.32;65.00
70027;BME280;57506;50.092;15.804;2023-07-13T08:40:14;98911.03;;;24.64;67.08
70027;BME280;57506;50.092;15.804;2023-07-13T08:50:34;98917.94;;;24.86;63.87
70027;BME280;57506;50.092;15.804;2023-07-13T08:53:02;98925.44;;;24.56;64.87
70027;BME280;57506;50.092;15.804;2023-07-13T08:55:33;98936.91;;;24.39;62.67
70027;BME280;57506;50.092;15.804;2023-07-13T08:58:16;98929.25;;;24.60;63.34
70027;BME280;57506;50.092;15.804;2023-07-13T09:01:16;98930.69;;;24.82;62.21
70027;BME280;57506;50.092;15.804;2023-07-13T09:06:16;98929.59;;;25.06;61.96
70027;BME280;57506;50.092;15.804;2023-07-13T09:09:01;98936.75;;;25.07;61.64
70027;BME280;57506;50.092;15.804;2023-07-13T09:11:45;98934.69;;;24.94;60.95
70027;BME280;57506;50.092;15.804;2023-07-13T09:17:33;98943.88;;;24.61;61.36
70027;BME280;57506;50.092;15.804;2023-07-13T09:20:06;98926.63;;;24.74;64.27
70027;BME280;57506;50.092;15.804;2023-07-13T09:22:36;98933.44;;;25.05;61.99
70027;BME280;57506;50.092;15.804;2023-07-13T09:25:30;98946.09;;;25.30;59.01
70027;BME280;57506;50.092;15.804;2023-07-13T09:28:00;98940.56;;;25.12;59.13
70027;BME280;57506;50.092;15.804;2023-07-13T09:31:02;98953.03;;;25.28;59.58
70027;BME280;57506;50.092;15.804;2023-07-13T09:33:28;98951.53;;;25.35;57.66
70027;BME280;57506;50.092;15.804;2023-07-13T09:35:59;98947.47;;;25.89;56.37
70027;BME280;57506;50.092;15.804;2023-07-13T09:38:27;98953.09;;;26.17;56.03
70027;BME280;57506;50.092;15.804;2023-07-13T09:43:25;98927.78;;;26.28;55.88
70027;BME280;57506;50.092;15.804;2023-07-13T09:45:51;98942.19;;;26.58;55.03
70027;BME280;57506;50.092;15.804;2023-07-13T09:48:18;98944.47;;;26.69;53.88
70027;BME280;57506;50.092;15.804;2023-07-13T09:50:44;98949.94;;;26.42;54.27
70027;BME280;57506;50.092;15.804;2023-07-13T09:53:18;98940.69;;;26.33;55.92
70027;BME280;57506;50.092;15.804;2023-07-13T09:55:46;98964.56;;;26.29;54.48
70027;BME280;57506;50.092;15.804;2023-07-13T09:58:16;98953.25;;;26.44;55.25
70027;BME280;57506;50.092;15.804;2023-07-13T10:01:03;98951.59;;;26.43;54.38
70027;BME280;57506;50.092;15.804;2023-07-13T10:03:34;98955.16;;;26.11;53.81
70027;BME280;57506;50.092;15.804;2023-07-13T10:06:25;98961.78;;;26.29;54.10
70027;BME280;57506;50.092;15.804;2023-07-13T10:08:56;98964.28;;;26.44;56.96
70027;BME280;57506;50.092;15.804;2023-07-13T10:11:28;98967.19;;;26.66;55.84
70027;BME280;57506;50.092;15.804;2023-07-13T10:14:02;98962.25;;;26.63;54.84
70027;BME280;57506;50.092;15.804;2023-07-13T10:16:37;98955.44;;;26.88;55.72
70027;BME280;57506;50.092;15.804;2023-07-13T10:19:23;98959.84;;;26.75;54.12
70027;BME280;57506;50.092;15.804;2023-07-13T10:21:57;98971.03;;;26.52;56.10
70027;BME280;57506;50.092;15.804;2023-07-13T10:24:25;98980.28;;;26.28;54.44
70027;BME280;57506;50.092;15.804;2023-07-13T10:27:05;98966.19;;;26.30;53.87
70027;BME280;57506;50.092;15.804;2023-07-13T10:32:26;98947.53;;;26.68;55.42
70027;BME280;57506;50.092;15.804;2023-07-13T10:34:52;98957.41;;;27.01;53.59
70027;BME280;57506;50.092;15.804;2023-07-13T10:37:26;98954.34;;;27.03;55.97
70027;BME280;57506;50.092;15.804;2023-07-13T10:39:54;98953.19;;;26.76;54.99
70027;BME280;57506;50.092;15.804;2023-07-13T10:42:32;98949.25;;;26.50;55.42
70027;BME280;57506;50.092;15.804;2023-07-13T10:44:59;98954.22;;;26.34;55.39
70027;BME280;57506;50.092;15.804;2023-07-13T10:47:24;98958.56;;;26.54;57.14
70027;BME280;57506;50.092;15.804;2023-07-13T10:49:54;98940.16;;;26.63;55.29
70027;BME280;57506;50.092;15.804;2023-07-13T10:52:46;98947.78;;;26.99;56.95
70027;BME280;57506;50.092;15.804;2023-07-13T11:00:53;98944.66;;;27.69;54.08
70027;BME280;57506;50.092;15.804;2023-07-13T11:03:22;98934.88;;;28.07;56.21
70027;BME280;57506;50.092;15.804;2023-07-13T11:05:51;98952.34;;;27.94;52.63
70027;BME280;57506;50.092;15.804;2023-07-13T11:08:34;98959.66;;;27.90;54.85
70027;BME280;57506;50.092;15.804;2023-07-13T11:11:03;98956.97;;;27.63;56.19
70027;BME280;57506;50.092;15.804;2023-07-13T11:18:48;98954.97;;;27.00;52.30
70027;BME280;57506;50.092;15.804;2023-07-13T11:21:22;98959.47;;;27.23;51.44
70027;BME280;57506;50.092;15.804;2023-07-13T11:24:12;98962.94;;;27.01;53.21
70027;BME280;57506;50.092;15.804;2023-07-13T11:31:59;98958.28;;;26.56;53.11
70027;BME280;57506;50.092;15.804;2023-07-13T11:34:35;98936.47;;;26.54;52.79
70027;BME280;57506;50.092;15.804;2023-07-13T11:37:01;98944.91;;;26.76;54.64
70027;BME280;57506;50.092;15.804;2023-07-13T11:39:39;98940.50;;;27.03;52.44
70027;BME280;57506;50.092;15.804;2023-07-13T11:42:12;98940.66;;;27.47;52.46
70027;BME280;57506;50.092;15.804;2023-07-13T11:44:47;98944.41;;;27.79;51.72
70027;BME280;57506;50.092;15.804;2023-07-13T11:47:18;98928.34;;;27.53;51.35
70027;BME280;57506;50.092;15.804;2023-07-13T11:49:55;98928.13;;;27.64;52.06
70027;BME280;57506;50.092;15.804;2023-07-13T11:52:36;98940.63;;;27.97;54.13
70027;BME280;57506;50.092;15.804;2023-07-13T11:55:08;98937.78;;;27.52;50.89
70027;BME280;57506;50.092;15.804;2023-07-13T11:57:51;98934.97;;;26.75;52.62
70027;BME280;57506;50.092;15.804;2023-07-13T12:00:26;98939.31;;;26.49;54.30
70027;BME280;57506;50.092;15.804;2023-07-13T12:02:54;98929.00;;;26.22;54.88
70027;BME280;57506;50.092;15.804;2023-07-13T12:05:21;98944.16;;;26.25;56.72
70027;BME280;57506;50.092;15.804;2023-07-13T12:07:47;98945.34;;;26.19;54.81
70027;BME280;57506;50.092;15.804;2023-07-13T12:10:26;98958.31;;;26.37;55.47
70027;BME280;57506;50.092;15.804;2023-07-13T12:12:56;98962.50;;;25.40;59.59
70027;BME280;57506;50.092;15.804;2023-07-13T12:15:28;98950.84;;;25.49;58.86
70027;BME280;57506;50.092;15.804;2023-07-13T12:17:56;98961.34;;;25.47;60.05
70027;BME280;57506;50.092;15.804;2023-07-13T12:20:25;98971.00;;;25.01;60.00
70027;BME280;57506;50.092;15.804;2023-07-13T12:22:51;98976.44;;;24.20;62.13
70027;BME280;57506;50.092;15.804;2023-07-13T12:25:18;98991.28;;;24.29;60.25
70027;BME280;57506;50.092;15.804;2023-07-13T12:27:48;98967.25;;;24.63;59.04
70027;BME280;57506;50.092;15.804;2023-07-13T12:30:32;98962.44;;;25.03;58.80
70027;BME280;57506;50.092;15.804;2023-07-13T12:33:11;98956.34;;;25.06;57.62
70027;BME280;57506;50.092;15.804;2023-07-13T12:35:49;98962.47;;;25.22;56.92
70027;BME280;57506;50.092;15.804;2023-07-13T12:38:16;98958.41;;;24.90;57.35
70027;BME280;57506;50.092;15.804;2023-07-13T12:40:42;98952.22;;;25.27;58.18
70027;BME280;57506;50.092;15.804;2023-07-13T12:43:12;98949.19;;;25.48;57.56
70027;BME280;57506;50.092;15.804;2023-07-13T12:45:39;98955.06;;;25.60;56.16
70027;BME280;57506;50.092;15.804;2023-07-13T12:48:20;98948.59;;;25.69;55.88
70027;BME280;57506;50.092;15.804;2023-07-13T12:50:49;98952.94;;;25.75;55.58
70027;BME280;57506;50.092;15.804;2023-07-13T12:53:23;98940.84;;;25.71;55.41
70027;BME280;57506;50.092;15.804;2023-07-13T12:55:52;98954.09;;;26.07;57.48
70027;BME280;57506;50.092;15.804;2023-07-13T13:00:51;98947.59;;;26.17;54.71
70027;BME280;57506;50.092;15.804;2023-07-13T13:03:26;98959.25;;;26.13;53.96
70027;BME280;57506;50.092;15.804;2023-07-13T13:08:49;98956.28;;;26.29;53.72
70027;BME280;57506;50.092;15.804;2023-07-13T13:11:16;98947.88;;;26.34;54.53
70027;BME280;57506;50.092;15.804;2023-07-13T13:13:43;98947.88;;;26.34;52.15
70027;BME280;57506;50.092;15.804;2023-07-13T13:17:01;98948.84;;;26.43;52.33
70027;BME280;57506;50.092;15.804;2023-07-13T13:19:25;98944.94;;;26.44;51.84
70027;BME280;57506;50.092;15.804;2023-07-13T13:21:54;98942.81;;;26.55;51.15
70027;BME280;57506;50.092;15.804;2023-07-13T13:24:23;98931.97;;;26.86;53.53
70027;BME280;57506;50.092;15.804;2023-07-13T13:26:53;98934.56;;;26.96;48.90
70027;BME280;57506;50.092;15.804;2023-07-13T13:29:23;98940.06;;;26.82;48.22
70027;BME280;57506;50.092;15.804;2023-07-13T13:31:50;98943.84;;;26.72;48.58
70027;BME280;57506;50.092;15.804;2023-07-13T13:34:17;98936.69;;;26.71;49.01